sensor_id;sensor_type;location;lat;lon;timestamp;P1;durP1;ratioP1;P2;durP2;ratioP2
26622;SDS011;14254;50.968;5.366;2022-12-07T00:03:49;37.47;;;21.38;;
26622;SDS011;14254;50.968;5.366;2022-12-07T00:06:16;47.53;;;21.48;;
26622;SDS011;14254;50.968;5.366;2022-12-07T00:08:43;42.60;;;22.55;;
26622;SDS011;14254;50.968;5.366;2022-12-07T00:13:36;38.75;;;21.63;;
26622;SDS011;14254;50.968;5.366;2022-12-07T00:16:06;41.17;;;23.75;;
26622;SDS011;14254;50.968;5.366;2022-12-07T00:18:40;40.25;;;22.88;;
26622;SDS011;14254;50.968;5.366;2022-12-07T00:23:36;44.30;;;23.55;;
26622;SDS011;14254;50.968;5.366;2022-12-07T00:28:30;45.95;;;23.77;;
26622;SDS011;14254;50.968;5.366;2022-12-07T00:31:00;43.13;;;22.85;;
26622;SDS011;14254;50.968;5.366;2022-12-07T00:33:27;45.60;;;23.70;;
26622;SDS011;14254;50.968;5.366;2022-12-07T00:35:57;40.97;;;23.17;;
26622;SDS011;14254;50.968;5.366;2022-12-07T00:38:24;48.03;;;25.38;;
26622;SDS011;14254;50.968;5.366;2022-12-07T00:40:55;44.08;;;25.00;;
26622;SDS011;14254;50.968;5.366;2022-12-07T00:43:22;45.22;;;24.58;;
26622;SDS011;14254;50.968;5.366;2022-12-07T00:45:47;51.80;;;25.70;;
26622;SDS011;14254;50.968;5.366;2022-12-07T00:48:13;48.85;;;25.92;;
26622;SDS011;14254;50.968;5.366;2022-12-07T00:50:39;49.88;;;26.85;;
26622;SDS011;14254;50.968;5.366;2022-12-07T00:53:04;46.63;;;26.55;;
26622;SDS011;14254;50.968;5.366;2022-12-07T00:55:33;51.72;;;26.42;;
26622;SDS011;14254;50.968;5.366;2022-12-07T00:57:59;40.90;;;23.38;;
26622;SDS011;14254;50.968;5.366;2022-12-07T01:00:25;44.72;;;23.65;;
26622;SDS011;14254;50.968;5.366;2022-12-07T01:02:51;58.47;;;26.48;;
26622;SDS011;14254;50.968;5.366;2022-12-07T01:05:17;54.05;;;27.02;;
26622;SDS011;14254;50.968;5.366;2022-12-07T01:07:43;51.85;;;26.08;;
26622;SDS011;14254;50.968;5.366;2022-12-07T01:10:09;49.95;;;26.85;;
26622;SDS011;14254;50.968;5.366;2022-12-07T01:12:35;48.58;;;27.98;;
26622;SDS011;14254;50.968;5.366;2022-12-07T01:15:00;51.35;;;27.02;;
26622;SDS011;14254;50.968;5.366;2022-12-07T01:17:26;50.05;;;27.45;;
26622;SDS011;14254;50.968;5.366;2022-12-07T01:19:53;57.45;;;29.08;;
26622;SDS011;14254;50.968;5.366;2022-12-07T01:22:19;51.05;;;27.50;;
26622;SDS011;14254;50.968;5.366;2022-12-07T01:24:45;50.03;;;26.33;;
26622;SDS011;14254;50.968;5.366;2022-12-07T01:27:11;51.05;;;26.83;;
26622;SDS011;14254;50.968;5.366;2022-12-07T01:29:38;56.50;;;27.00;;
26622;SDS011;14254;50.968;5.366;2022-12-07T01:32:03;51.95;;;27.77;;
26622;SDS011;14254;50.968;5.366;2022-12-07T01:34:29;52.20;;;26.92;;
26622;SDS011;14254;50.968;5.366;2022-12-07T01:36:55;51.78;;;27.70;;
26622;SDS011;14254;50.968;5.366;2022-12-07T01:39:21;51.80;;;27.27;;
26622;SDS011;14254;50.968;5.366;2022-12-07T01:41:47;51.42;;;26.67;;
26622;SDS011;14254;50.968;5.366;2022-12-07T01:44:22;43.35;;;26.80;;
26622;SDS011;14254;50.968;5.366;2022-12-07T01:46:49;53.83;;;26.55;;
26622;SDS011;14254;50.968;5.366;2022-12-07T01:49:18;53.22;;;27.60;;
26622;SDS011;14254;50.968;5.366;2022-12-07T01:52:22;48.67;;;26.27;;
26622;SDS011;14254;50.968;5.366;2022-12-07T01:54:49;45.85;;;26.45;;
26622;SDS011;14254;50.968;5.366;2022-12-07T01:57:19;50.00;;;27.15;;
26622;SDS011;14254;50.968;5.366;2022-12-07T01:59:47;46.88;;;27.75;;
26622;SDS011;14254;50.968;5.366;2022-12-07T02:02:17;49.33;;;27.63;;
26622;SDS011;14254;50.968;5.366;2022-12-07T02:04:47;46.53;;;27.80;;
26622;SDS011;14254;50.968;5.366;2022-12-07T02:07:14;53.13;;;27.73;;
26622;SDS011;14254;50.968;5.366;2022-12-07T02:09:40;50.20;;;26.67;;
26622;SDS011;14254;50.968;5.366;2022-12-07T02:12:06;53.67;;;27.75;;
26622;SDS011;14254;50.968;5.366;2022-12-07T02:14:31;53.33;;;28.48;;
26622;SDS011;14254;50.968;5.366;2022-12-07T02:19:44;55.30;;;29.60;;
26622;SDS011;14254;50.968;5.366;2022-12-07T02:25:28;53.17;;;30.13;;
26622;SDS011;14254;50.968;5.366;2022-12-07T02:31:07;57.55;;;29.13;;
26622;SDS011;14254;50.968;5.366;2022-12-07T02:33:40;55.00;;;29.85;;
26622;SDS011;14254;50.968;5.366;2022-12-07T02:38:55;49.00;;;28.35;;
26622;SDS011;14254;50.968;5.366;2022-12-07T02:41:35;50.85;;;27.55;;
26622;SDS011;14254;50.968;5.366;2022-12-07T02:44:08;56.80;;;27.70;;
26622;SDS011;14254;50.968;5.366;2022-12-07T02:46:40;60.55;;;30.30;;
26622;SDS011;14254;50.968;5.366;2022-12-07T02:49:12;53.75;;;28.40;;
26622;SDS011;14254;50.968;5.366;2022-12-07T02:51:42;63.15;;;29.45;;
26622;SDS011;14254;50.968;5.366;2022-12-07T02:54:14;63.55;;;31.00;;
26622;SDS011;14254;50.968;5.366;2022-12-07T03:04:45;57.53;;;30.05;;
26622;SDS011;14254;50.968;5.366;2022-12-07T03:10:14;58.92;;;30.70;;
26622;SDS011;14254;50.968;5.366;2022-12-07T03:16:08;60.13;;;31.63;;
26622;SDS011;14254;50.968;5.366;2022-12-07T03:18:46;66.93;;;32.67;;
26622;SDS011;14254;50.968;5.366;2022-12-07T03:21:21;63.88;;;32.10;;
26622;SDS011;14254;50.968;5.366;2022-12-07T03:23:52;60.70;;;32.53;;
26622;SDS011;14254;50.968;5.366;2022-12-07T03:26:21;59.33;;;32.60;;
26622;SDS011;14254;50.968;5.366;2022-12-07T03:31:25;59.10;;;28.35;;
26622;SDS011;14254;50.968;5.366;2022-12-07T03:36:29;51.00;;;30.45;;
26622;SDS011;14254;50.968;5.366;2022-12-07T03:41:49;55.28;;;31.88;;
26622;SDS011;14254;50.968;5.366;2022-12-07T03:44:16;60.38;;;32.42;;
26622;SDS011;14254;50.968;5.366;2022-12-07T03:52:18;68.18;;;33.72;;
26622;SDS011;14254;50.968;5.366;2022-12-07T03:57:30;67.00;;;36.13;;
26622;SDS011;14254;50.968;5.366;2022-12-07T03:59:58;67.35;;;33.05;;
26622;SDS011;14254;50.968;5.366;2022-12-07T04:02:26;70.18;;;34.22;;
26622;SDS011;14254;50.968;5.366;2022-12-07T04:04:53;73.70;;;37.42;;
26622;SDS011;14254;50.968;5.366;2022-12-07T04:07:20;76.68;;;39.95;;
26622;SDS011;14254;50.968;5.366;2022-12-07T04:09:46;68.40;;;35.53;;
26622;SDS011;14254;50.968;5.366;2022-12-07T04:12:12;72.72;;;36.03;;
26622;SDS011;14254;50.968;5.366;2022-12-07T04:14:37;72.53;;;35.38;;
26622;SDS011;14254;50.968;5.366;2022-12-07T04:17:03;76.43;;;34.67;;
26622;SDS011;14254;50.968;5.366;2022-12-07T04:19:33;64.60;;;36.75;;
26622;SDS011;14254;50.968;5.366;2022-12-07T04:21:59;79.50;;;38.10;;
26622;SDS011;14254;50.968;5.366;2022-12-07T04:24:26;74.05;;;36.30;;
26622;SDS011;14254;50.968;5.366;2022-12-07T04:26:52;72.93;;;38.08;;
26622;SDS011;14254;50.968;5.366;2022-12-07T04:29:19;82.25;;;39.70;;
26622;SDS011;14254;50.968;5.366;2022-12-07T04:31:46;75.13;;;36.85;;
26622;SDS011;14254;50.968;5.366;2022-12-07T04:34:12;86.93;;;41.47;;
26622;SDS011;14254;50.968;5.366;2022-12-07T04:36:38;86.75;;;38.42;;
26622;SDS011;14254;50.968;5.366;2022-12-07T04:39:04;80.40;;;38.90;;
26622;SDS011;14254;50.968;5.366;2022-12-07T04:41:32;82.05;;;38.33;;
26622;SDS011;14254;50.968;5.366;2022-12-07T04:44:02;83.47;;;39.85;;
26622;SDS011;14254;50.968;5.366;2022-12-07T04:46:32;83.00;;;41.28;;
26622;SDS011;14254;50.968;5.366;2022-12-07T04:48:58;84.13;;;39.10;;
26622;SDS011;14254;50.968;5.366;2022-12-07T04:51:25;90.70;;;40.70;;
26622;SDS011;14254;50.968;5.366;2022-12-07T04:53:52;98.15;;;43.75;;
26622;SDS011;14254;50.968;5.366;2022-12-07T04:56:19;84.05;;;39.45;;
26622;SDS011;14254;50.968;5.366;2022-12-07T04:58:45;101.25;;;42.70;;
26622;SDS011;14254;50.968;5.366;2022-12-07T05:01:12;85.95;;;39.70;;
26622;SDS011;14254;50.968;5.366;2022-12-07T05:03:39;86.63;;;41.30;;
26622;SDS011;14254;50.968;5.366;2022-12-07T05:06:05;93.78;;;42.35;;
26622;SDS011;14254;50.968;5.366;2022-12-07T05:08:32;97.05;;;41.85;;
26622;SDS011;14254;50.968;5.366;2022-12-07T05:10:59;104.18;;;42.90;;
26622;SDS011;14254;50.968;5.366;2022-12-07T05:13:25;87.57;;;40.75;;
26622;SDS011;14254;50.968;5.366;2022-12-07T05:15:51;108.57;;;43.47;;
26622;SDS011;14254;50.968;5.366;2022-12-07T05:18:17;92.10;;;40.35;;
26622;SDS011;14254;50.968;5.366;2022-12-07T05:20:43;81.78;;;37.47;;
26622;SDS011;14254;50.968;5.366;2022-12-07T05:23:09;93.95;;;39.35;;
26622;SDS011;14254;50.968;5.366;2022-12-07T05:25:35;110.20;;;43.33;;
26622;SDS011;14254;50.968;5.366;2022-12-07T05:28:01;103.05;;;43.38;;
26622;SDS011;14254;50.968;5.366;2022-12-07T05:30:27;106.75;;;42.63;;
26622;SDS011;14254;50.968;5.366;2022-12-07T05:32:53;98.07;;;43.70;;
26622;SDS011;14254;50.968;5.366;2022-12-07T05:35:18;96.63;;;42.25;;
26622;SDS011;14254;50.968;5.366;2022-12-07T05:37:44;98.03;;;40.78;;
26622;SDS011;14254;50.968;5.366;2022-12-07T05:40:10;92.50;;;37.45;;
26622;SDS011;14254;50.968;5.366;2022-12-07T05:42:37;82.10;;;36.35;;
26622;SDS011;14254;50.968;5.366;2022-12-07T05:45:03;80.75;;;38.60;;
26622;SDS011;14254;50.968;5.366;2022-12-07T05:47:29;83.15;;;39.08;;
26622;SDS011;14254;50.968;5.366;2022-12-07T05:49:55;75.07;;;38.15;;
26622;SDS011;14254;50.968;5.366;2022-12-07T05:52:21;96.00;;;41.42;;
26622;SDS011;14254;50.968;5.366;2022-12-07T05:54:47;85.32;;;38.60;;
26622;SDS011;14254;50.968;5.366;2022-12-07T05:57:12;98.20;;;38.15;;
26622;SDS011;14254;50.968;5.366;2022-12-07T05:59:38;80.78;;;39.60;;
26622;SDS011;14254;50.968;5.366;2022-12-07T06:02:08;99.05;;;42.03;;
26622;SDS011;14254;50.968;5.366;2022-12-07T06:04:38;103.30;;;44.42;;
26622;SDS011;14254;50.968;5.366;2022-12-07T06:07:06;103.78;;;45.03;;
26622;SDS011;14254;50.968;5.366;2022-12-07T06:09:32;95.95;;;44.20;;
26622;SDS011;14254;50.968;5.366;2022-12-07T06:11:58;106.15;;;44.10;;
26622;SDS011;14254;50.968;5.366;2022-12-07T06:14:46;100.72;;;42.88;;
26622;SDS011;14254;50.968;5.366;2022-12-07T06:17:12;88.47;;;43.45;;
26622;SDS011;14254;50.968;5.366;2022-12-07T06:19:39;83.53;;;39.80;;
26622;SDS011;14254;50.968;5.366;2022-12-07T06:22:05;99.47;;;44.20;;
26622;SDS011;14254;50.968;5.366;2022-12-07T06:24:31;92.72;;;42.15;;
26622;SDS011;14254;50.968;5.366;2022-12-07T06:26:58;93.82;;;44.72;;
26622;SDS011;14254;50.968;5.366;2022-12-07T06:29:24;92.22;;;42.65;;
26622;SDS011;14254;50.968;5.366;2022-12-07T06:31:49;88.88;;;41.13;;
26622;SDS011;14254;50.968;5.366;2022-12-07T06:34:17;93.32;;;44.78;;
26622;SDS011;14254;50.968;5.366;2022-12-07T06:36:43;92.80;;;41.97;;
26622;SDS011;14254;50.968;5.366;2022-12-07T06:39:10;87.07;;;42.60;;
26622;SDS011;14254;50.968;5.366;2022-12-07T06:41:36;84.72;;;39.95;;
26622;SDS011;14254;50.968;5.366;2022-12-07T06:44:03;88.88;;;39.20;;
26622;SDS011;14254;50.968;5.366;2022-12-07T06:46:32;87.28;;;39.90;;
26622;SDS011;14254;50.968;5.366;2022-12-07T06:49:00;84.68;;;38.05;;
26622;SDS011;14254;50.968;5.366;2022-12-07T06:51:33;89.32;;;40.92;;
26622;SDS011;14254;50.968;5.366;2022-12-07T06:54:06;97.15;;;40.75;;
26622;SDS011;14254;50.968;5.366;2022-12-07T06:56:33;89.60;;;40.95;;
26622;SDS011;14254;50.968;5.366;2022-12-07T06:58:59;90.20;;;39.58;;
26622;SDS011;14254;50.968;5.366;2022-12-07T07:01:24;88.68;;;41.03;;
26622;SDS011;14254;50.968;5.366;2022-12-07T07:03:50;80.97;;;39.67;;
26622;SDS011;14254;50.968;5.366;2022-12-07T07:06:16;98.15;;;41.92;;
26622;SDS011;14254;50.968;5.366;2022-12-07T07:08:41;91.90;;;40.75;;
26622;SDS011;14254;50.968;5.366;2022-12-07T07:11:07;92.22;;;41.60;;
26622;SDS011;14254;50.968;5.366;2022-12-07T07:13:34;95.88;;;40.15;;
26622;SDS011;14254;50.968;5.366;2022-12-07T07:15:59;83.53;;;39.70;;
26622;SDS011;14254;50.968;5.366;2022-12-07T07:18:26;102.10;;;43.97;;
26622;SDS011;14254;50.968;5.366;2022-12-07T07:20:54;165.55;;;43.20;;
26622;SDS011;14254;50.968;5.366;2022-12-07T07:23:22;112.93;;;40.50;;
26622;SDS011;14254;50.968;5.366;2022-12-07T07:25:48;90.38;;;39.67;;
26622;SDS011;14254;50.968;5.366;2022-12-07T07:28:14;139.85;;;41.90;;
26622;SDS011;14254;50.968;5.366;2022-12-07T07:30:40;97.35;;;41.30;;
26622;SDS011;14254;50.968;5.366;2022-12-07T07:33:06;81.38;;;38.65;;
26622;SDS011;14254;50.968;5.366;2022-12-07T07:35:33;95.25;;;40.50;;
26622;SDS011;14254;50.968;5.366;2022-12-07T07:37:59;101.47;;;40.42;;
26622;SDS011;14254;50.968;5.366;2022-12-07T07:40:26;103.97;;;42.03;;
26622;SDS011;14254;50.968;5.366;2022-12-07T07:42:53;88.75;;;41.85;;
26622;SDS011;14254;50.968;5.366;2022-12-07T07:45:20;120.15;;;40.92;;
26622;SDS011;14254;50.968;5.366;2022-12-07T07:47:47;291.45;;;46.17;;
26622;SDS011;14254;50.968;5.366;2022-12-07T07:50:13;111.68;;;39.38;;
26622;SDS011;14254;50.968;5.366;2022-12-07T07:52:39;124.95;;;37.42;;
26622;SDS011;14254;50.968;5.366;2022-12-07T07:55:04;102.90;;;39.20;;
26622;SDS011;14254;50.968;5.366;2022-12-07T07:57:33;196.18;;;36.40;;
26622;SDS011;14254;50.968;5.366;2022-12-07T07:59:59;220.13;;;36.92;;
26622;SDS011;14254;50.968;5.366;2022-12-07T08:02:25;219.65;;;36.15;;
26622;SDS011;14254;50.968;5.366;2022-12-07T08:04:54;123.68;;;37.85;;
26622;SDS011;14254;50.968;5.366;2022-12-07T08:07:20;103.65;;;38.40;;
26622;SDS011;14254;50.968;5.366;2022-12-07T08:09:45;97.57;;;41.97;;
26622;SDS011;14254;50.968;5.366;2022-12-07T08:12:11;103.97;;;43.33;;
26622;SDS011;14254;50.968;5.366;2022-12-07T08:14:37;92.22;;;41.03;;
26622;SDS011;14254;50.968;5.366;2022-12-07T08:17:03;118.28;;;45.17;;
26622;SDS011;14254;50.968;5.366;2022-12-07T08:19:28;118.60;;;45.40;;
26622;SDS011;14254;50.968;5.366;2022-12-07T08:21:54;111.38;;;44.90;;
26622;SDS011;14254;50.968;5.366;2022-12-07T08:24:21;122.57;;;45.45;;
26622;SDS011;14254;50.968;5.366;2022-12-07T08:26:47;105.55;;;45.83;;
26622;SDS011;14254;50.968;5.366;2022-12-07T08:29:14;113.93;;;46.78;;
26622;SDS011;14254;50.968;5.366;2022-12-07T08:31:40;102.82;;;41.92;;
26622;SDS011;14254;50.968;5.366;2022-12-07T08:34:06;101.85;;;44.45;;
26622;SDS011;14254;50.968;5.366;2022-12-07T08:36:32;108.00;;;45.97;;
26622;SDS011;14254;50.968;5.366;2022-12-07T08:38:57;118.07;;;45.25;;
26622;SDS011;14254;50.968;5.366;2022-12-07T08:41:23;109.55;;;45.88;;
26622;SDS011;14254;50.968;5.366;2022-12-07T08:43:48;113.22;;;47.17;;
26622;SDS011;14254;50.968;5.366;2022-12-07T08:49:18;107.53;;;44.05;;
26622;SDS011;14254;50.968;5.366;2022-12-07T08:51:47;107.03;;;44.15;;
26622;SDS011;14254;50.968;5.366;2022-12-07T08:54:14;101.28;;;44.55;;
26622;SDS011;14254;50.968;5.366;2022-12-07T08:56:43;97.22;;;43.92;;
26622;SDS011;14254;50.968;5.366;2022-12-07T08:59:12;90.38;;;42.58;;
26622;SDS011;14254;50.968;5.366;2022-12-07T09:01:39;97.75;;;44.03;;
26622;SDS011;14254;50.968;5.366;2022-12-07T09:04:05;88.28;;;41.38;;
26622;SDS011;14254;50.968;5.366;2022-12-07T09:06:30;76.53;;;40.45;;
26622;SDS011;14254;50.968;5.366;2022-12-07T09:08:57;84.75;;;39.72;;
26622;SDS011;14254;50.968;5.366;2022-12-07T09:11:24;75.60;;;37.85;;
26622;SDS011;14254;50.968;5.366;2022-12-07T09:13:50;76.18;;;36.72;;
26622;SDS011;14254;50.968;5.366;2022-12-07T09:16:16;79.70;;;36.10;;
26622;SDS011;14254;50.968;5.366;2022-12-07T09:18:41;73.88;;;34.92;;
26622;SDS011;14254;50.968;5.366;2022-12-07T09:21:07;71.22;;;35.58;;
26622;SDS011;14254;50.968;5.366;2022-12-07T09:23:33;82.47;;;36.03;;
26622;SDS011;14254;50.968;5.366;2022-12-07T09:25:59;73.75;;;34.25;;
26622;SDS011;14254;50.968;5.366;2022-12-07T09:28:25;70.93;;;35.20;;
26622;SDS011;14254;50.968;5.366;2022-12-07T09:30:51;58.65;;;28.50;;
26622;SDS011;14254;50.968;5.366;2022-12-07T09:33:17;62.85;;;32.20;;
26622;SDS011;14254;50.968;5.366;2022-12-07T09:35:46;56.63;;;28.58;;
26622;SDS011;14254;50.968;5.366;2022-12-07T09:38:13;56.60;;;29.38;;
26622;SDS011;14254;50.968;5.366;2022-12-07T09:40:39;55.40;;;27.48;;
26622;SDS011;14254;50.968;5.366;2022-12-07T09:43:11;53.33;;;27.85;;
26622;SDS011;14254;50.968;5.366;2022-12-07T09:45:43;52.00;;;27.77;;
26622;SDS011;14254;50.968;5.366;2022-12-07T09:48:17;50.35;;;25.80;;
26622;SDS011;14254;50.968;5.366;2022-12-07T09:50:46;57.20;;;25.67;;
26622;SDS011;14254;50.968;5.366;2022-12-07T09:53:15;48.55;;;26.23;;
26622;SDS011;14254;50.968;5.366;2022-12-07T09:55:47;40.78;;;23.50;;
26622;SDS011;14254;50.968;5.366;2022-12-07T09:58:20;41.55;;;21.60;;
26622;SDS011;14254;50.968;5.366;2022-12-07T10:00:50;41.55;;;21.73;;
26622;SDS011;14254;50.968;5.366;2022-12-07T10:03:18;44.13;;;20.52;;
26622;SDS011;14254;50.968;5.366;2022-12-07T10:05:45;35.78;;;18.35;;
26622;SDS011;14254;50.968;5.366;2022-12-07T10:08:13;31.95;;;16.50;;
26622;SDS011;14254;50.968;5.366;2022-12-07T10:10:42;30.52;;;17.80;;
26622;SDS011;14254;50.968;5.366;2022-12-07T10:13:12;35.10;;;17.25;;
26622;SDS011;14254;50.968;5.366;2022-12-07T10:21:11;24.40;;;12.57;;
26622;SDS011;14254;50.968;5.366;2022-12-07T10:24:03;31.65;;;14.30;;
26622;SDS011;14254;50.968;5.366;2022-12-07T10:26:36;27.00;;;13.32;;
26622;SDS011;14254;50.968;5.366;2022-12-07T10:29:15;25.52;;;13.75;;
26622;SDS011;14254;50.968;5.366;2022-12-07T10:34:39;24.10;;;12.25;;
26622;SDS011;14254;50.968;5.366;2022-12-07T10:42:28;25.17;;;12.32;;
26622;SDS011;14254;50.968;5.366;2022-12-07T10:47:51;28.45;;;13.07;;
26622;SDS011;14254;50.968;5.366;2022-12-07T11:09:32;31.98;;;14.70;;
26622;SDS011;14254;50.968;5.366;2022-12-07T11:12:21;23.90;;;12.30;;
26622;SDS011;14254;50.968;5.366;2022-12-07T11:15:21;21.27;;;13.13;;
26622;SDS011;14254;50.968;5.366;2022-12-07T11:23:16;20.95;;;11.40;;
26622;SDS011;14254;50.968;5.366;2022-12-07T11:28:57;21.23;;;10.18;;
26622;SDS011;14254;50.968;5.366;2022-12-07T11:31:41;18.63;;;8.80;;
26622;SDS011;14254;50.968;5.366;2022-12-07T11:34:24;23.50;;;9.60;;
26622;SDS011;14254;50.968;5.366;2022-12-07T11:36:54;20.52;;;9.35;;
26622;SDS011;14254;50.968;5.366;2022-12-07T11:41:48;16.90;;;8.95;;
26622;SDS011;14254;50.968;5.366;2022-12-07T11:55:24;17.38;;;7.55;;
26622;SDS011;14254;50.968;5.366;2022-12-07T11:57:54;17.52;;;7.32;;
26622;SDS011;14254;50.968;5.366;2022-12-07T12:00:28;19.67;;;7.78;;
26622;SDS011;14254;50.968;5.366;2022-12-07T12:02:58;16.90;;;7.25;;
26622;SDS011;14254;50.968;5.366;2022-12-07T12:05:29;13.25;;;6.68;;
26622;SDS011;14254;50.968;5.366;2022-12-07T12:10:40;16.95;;;7.68;;
26622;SDS011;14254;50.968;5.366;2022-12-07T12:21:12;10.73;;;5.20;;
26622;SDS011;14254;50.968;5.366;2022-12-07T12:23:46;11.60;;;4.35;;
26622;SDS011;14254;50.968;5.366;2022-12-07T12:26:20;12.07;;;4.27;;
26622;SDS011;14254;50.968;5.366;2022-12-07T12:28:58;13.48;;;6.35;;
26622;SDS011;14254;50.968;5.366;2022-12-07T12:33:58;15.05;;;5.00;;
26622;SDS011;14254;50.968;5.366;2022-12-07T12:44:01;8.05;;;4.57;;
26622;SDS011;14254;50.968;5.366;2022-12-07T12:54:21;14.23;;;6.28;;
26622;SDS011;14254;50.968;5.366;2022-12-07T12:59:28;14.88;;;4.80;;
26622;SDS011;14254;50.968;5.366;2022-12-07T13:34:33;12.65;;;3.75;;
26622;SDS011;14254;50.968;5.366;2022-12-07T13:37:00;9.57;;;4.10;;
26622;SDS011;14254;50.968;5.366;2022-12-07T13:39:48;6.65;;;3.70;;
26622;SDS011;14254;50.968;5.366;2022-12-07T13:42:20;13.07;;;4.07;;
26622;SDS011;14254;50.968;5.366;2022-12-07T13:44:51;8.23;;;4.00;;
26622;SDS011;14254;50.968;5.366;2022-12-07T13:50:00;17.20;;;4.95;;
26622;SDS011;14254;50.968;5.366;2022-12-07T13:52:30;23.80;;;6.07;;
26622;SDS011;14254;50.968;5.366;2022-12-07T13:55:00;20.80;;;6.63;;
26622;SDS011;14254;50.968;5.366;2022-12-07T13:57:27;11.63;;;4.13;;
26622;SDS011;14254;50.968;5.366;2022-12-07T13:59:55;13.80;;;4.78;;
26622;SDS011;14254;50.968;5.366;2022-12-07T14:02:24;10.98;;;4.75;;
26622;SDS011;14254;50.968;5.366;2022-12-07T14:05:14;9.30;;;4.03;;
26622;SDS011;14254;50.968;5.366;2022-12-07T14:07:48;12.13;;;4.85;;
26622;SDS011;14254;50.968;5.366;2022-12-07T14:10:24;15.55;;;5.18;;
26622;SDS011;14254;50.968;5.366;2022-12-07T14:12:53;13.82;;;5.47;;
26622;SDS011;14254;50.968;5.366;2022-12-07T14:15:20;16.05;;;5.80;;
26622;SDS011;14254;50.968;5.366;2022-12-07T14:17:52;13.48;;;5.78;;
26622;SDS011;14254;50.968;5.366;2022-12-07T14:20:28;17.95;;;7.18;;
26622;SDS011;14254;50.968;5.366;2022-12-07T14:22:58;14.95;;;5.85;;
26622;SDS011;14254;50.968;5.366;2022-12-07T14:25:27;10.00;;;4.07;;
26622;SDS011;14254;50.968;5.366;2022-12-07T14:28:00;13.70;;;4.40;;
26622;SDS011;14254;50.968;5.366;2022-12-07T14:30:27;10.32;;;4.93;;
26622;SDS011;14254;50.968;5.366;2022-12-07T14:32:57;10.73;;;4.50;;
26622;SDS011;14254;50.968;5.366;2022-12-07T14:35:26;11.77;;;4.88;;
26622;SDS011;14254;50.968;5.366;2022-12-07T14:37:53;13.57;;;5.30;;
26622;SDS011;14254;50.968;5.366;2022-12-07T14:40:20;15.63;;;6.35;;
26622;SDS011;14254;50.968;5.366;2022-12-07T14:42:47;13.02;;;5.47;;
26622;SDS011;14254;50.968;5.366;2022-12-07T14:45:21;13.52;;;6.85;;
26622;SDS011;14254;50.968;5.366;2022-12-07T14:47:47;16.52;;;6.35;;
26622;SDS011;14254;50.968;5.366;2022-12-07T14:50:14;16.27;;;6.50;;
26622;SDS011;14254;50.968;5.366;2022-12-07T14:53:06;16.75;;;6.90;;
26622;SDS011;14254;50.968;5.366;2022-12-07T14:55:34;19.73;;;6.90;;
26622;SDS011;14254;50.968;5.366;2022-12-07T14:58:00;17.85;;;6.97;;
26622;SDS011;14254;50.968;5.366;2022-12-07T15:00:26;19.58;;;7.03;;
26622;SDS011;14254;50.968;5.366;2022-12-07T15:02:53;20.73;;;7.93;;
26622;SDS011;14254;50.968;5.366;2022-12-07T15:05:19;16.02;;;8.13;;
26622;SDS011;14254;50.968;5.366;2022-12-07T15:07:45;18.75;;;7.93;;
26622;SDS011;14254;50.968;5.366;2022-12-07T15:12:45;21.58;;;8.07;;
26622;SDS011;14254;50.968;5.366;2022-12-07T15:15:11;15.30;;;9.00;;
26622;SDS011;14254;50.968;5.366;2022-12-07T15:17:37;15.15;;;8.38;;
26622;SDS011;14254;50.968;5.366;2022-12-07T15:20:03;19.50;;;9.13;;
26622;SDS011;14254;50.968;5.366;2022-12-07T15:22:30;18.08;;;7.70;;
26622;SDS011;14254;50.968;5.366;2022-12-07T15:24:56;20.23;;;10.10;;
26622;SDS011;14254;50.968;5.366;2022-12-07T15:27:22;23.65;;;10.10;;
26622;SDS011;14254;50.968;5.366;2022-12-07T15:29:48;21.35;;;10.60;;
26622;SDS011;14254;50.968;5.366;2022-12-07T15:32:14;23.02;;;10.20;;
26622;SDS011;14254;50.968;5.366;2022-12-07T15:34:40;15.82;;;10.45;;
26622;SDS011;14254;50.968;5.366;2022-12-07T15:37:06;15.95;;;9.57;;
26622;SDS011;14254;50.968;5.366;2022-12-07T15:39:32;14.70;;;9.43;;
26622;SDS011;14254;50.968;5.366;2022-12-07T15:41:57;26.00;;;10.98;;
26622;SDS011;14254;50.968;5.366;2022-12-07T15:44:23;23.88;;;12.50;;
26622;SDS011;14254;50.968;5.366;2022-12-07T15:47:07;18.83;;;12.10;;
26622;SDS011;14254;50.968;5.366;2022-12-07T15:49:33;23.15;;;11.18;;
26622;SDS011;14254;50.968;5.366;2022-12-07T15:51:58;18.77;;;10.45;;
26622;SDS011;14254;50.968;5.366;2022-12-07T15:54:25;19.88;;;10.45;;
26622;SDS011;14254;50.968;5.366;2022-12-07T15:56:52;16.88;;;9.82;;
26622;SDS011;14254;50.968;5.366;2022-12-07T15:59:19;18.33;;;10.55;;
26622;SDS011;14254;50.968;5.366;2022-12-07T16:01:44;15.95;;;8.63;;
26622;SDS011;14254;50.968;5.366;2022-12-07T16:04:10;16.08;;;9.77;;
26622;SDS011;14254;50.968;5.366;2022-12-07T16:06:36;14.48;;;8.68;;
26622;SDS011;14254;50.968;5.366;2022-12-07T16:09:02;12.93;;;8.02;;
26622;SDS011;14254;50.968;5.366;2022-12-07T16:11:29;14.05;;;7.47;;
26622;SDS011;14254;50.968;5.366;2022-12-07T16:13:54;12.18;;;6.55;;
26622;SDS011;14254;50.968;5.366;2022-12-07T16:16:20;11.73;;;6.82;;
26622;SDS011;14254;50.968;5.366;2022-12-07T16:18:47;13.48;;;7.15;;
26622;SDS011;14254;50.968;5.366;2022-12-07T16:21:14;11.15;;;6.47;;
26622;SDS011;14254;50.968;5.366;2022-12-07T16:23:41;8.90;;;6.30;;
26622;SDS011;14254;50.968;5.366;2022-12-07T16:26:08;7.18;;;5.57;;
26622;SDS011;14254;50.968;5.366;2022-12-07T16:28:41;10.90;;;6.00;;
26622;SDS011;14254;50.968;5.366;2022-12-07T16:31:08;13.93;;;5.90;;
26622;SDS011;14254;50.968;5.366;2022-12-07T16:33:36;15.07;;;6.47;;
26622;SDS011;14254;50.968;5.366;2022-12-07T16:36:04;8.48;;;5.63;;
26622;SDS011;14254;50.968;5.366;2022-12-07T16:38:31;10.63;;;5.85;;
26622;SDS011;14254;50.968;5.366;2022-12-07T16:40:57;16.05;;;6.63;;
26622;SDS011;14254;50.968;5.366;2022-12-07T16:43:22;11.13;;;5.72;;
26622;SDS011;14254;50.968;5.366;2022-12-07T16:45:48;9.82;;;5.55;;
26622;SDS011;14254;50.968;5.366;2022-12-07T16:48:14;8.98;;;5.93;;
26622;SDS011;14254;50.968;5.366;2022-12-07T16:50:41;9.98;;;5.45;;
26622;SDS011;14254;50.968;5.366;2022-12-07T16:53:08;14.20;;;6.55;;
26622;SDS011;14254;50.968;5.366;2022-12-07T16:55:41;12.25;;;8.07;;
26622;SDS011;14254;50.968;5.366;2022-12-07T16:58:08;12.15;;;5.95;;
26622;SDS011;14254;50.968;5.366;2022-12-07T17:00:35;12.95;;;5.97;;
26622;SDS011;14254;50.968;5.366;2022-12-07T17:03:01;10.38;;;6.40;;
26622;SDS011;14254;50.968;5.366;2022-12-07T17:05:28;12.93;;;6.18;;
26622;SDS011;14254;50.968;5.366;2022-12-07T17:07:54;11.35;;;7.00;;
26622;SDS011;14254;50.968;5.366;2022-12-07T17:10:21;10.13;;;6.32;;
26622;SDS011;14254;50.968;5.366;2022-12-07T17:12:47;9.88;;;6.32;;
26622;SDS011;14254;50.968;5.366;2022-12-07T17:15:13;9.50;;;5.78;;
26622;SDS011;14254;50.968;5.366;2022-12-07T17:17:42;11.60;;;5.88;;
26622;SDS011;14254;50.968;5.366;2022-12-07T17:20:11;13.98;;;6.05;;
26622;SDS011;14254;50.968;5.366;2022-12-07T17:22:37;14.10;;;7.68;;
26622;SDS011;14254;50.968;5.366;2022-12-07T17:25:03;12.95;;;7.22;;
26622;SDS011;14254;50.968;5.366;2022-12-07T17:27:29;10.30;;;6.65;;
26622;SDS011;14254;50.968;5.366;2022-12-07T17:29:55;13.40;;;7.10;;
26622;SDS011;14254;50.968;5.366;2022-12-07T17:32:21;15.70;;;8.07;;